Aeroporto :
LOGIN :

Iscrizione | Disclaimer

   EN    FR    IT 

 










Sommario :    VFR   VFR Marginale   IFR   IFR Intensivo   IFR Molto Intensivo
Visibilità : 
Base nubi : 
>= 8 km
>= 3000ft
5 / 8 km
1000 / 3000 ft
1500m / 5 km
500 / 1000 ft
800 / 1500m
200 / 500 ft
< 800m
< 200 ft
Simboli :   Temporali  Nebbia  Neve Forte  Precipitazioni Forti  Vento > 20 kt
SIGMETs :   Varie  Temporali  Ghiacco  Turbolenza  Onda orograficha  Ceneri Vulcaniche






- Altitudine del aeroporto : 675 ft
- Codice IATA : RZE


EPRZ - Rzeszow-Jasionka

ULTIMO METAR :
  • 250500Z 25005KT 4400 BR NSC M05/M06 Q1021

METARs OBSOLETI :
  • 250430Z 24007KT 4500 BR NSC M04/M05 Q1020
  • 250400Z 25007KT 4100 BR NSC M04/M05 Q1021
  • 250330Z 25007KT 3700 BR NSC M04/M05 Q1021
  • 250300Z 26009KT 3800 BR NSC M04/M05 Q1021
  • 250230Z 26009KT 4100 BR NSC M04/M05 Q1020

TAF AMD TAF EPRZ
Valido dal 25 a 00 ore il 26 a 00 ore UTC


250054Z 2500/2524 25010KT CAVOK
TEMPO 2500/2504 4000 BR BKN006



MetMap, La meteo Aeronautica in un colpo d'occhio ! - Copyright ORBIFLY Dicembre 2007 - Disclaimer

ORBIFLY MET'MAP TEAM :

Programmazione e sviluppo : Alexandra Zaïnal
Concezione : Baudouin d'Aumeries
Aiuto per la programmazione : Marc-Olivier Méhu
Supporto tecnico e logistico : Manuel Goepfert
Aiuto per la traduzione : Arnaldo La Scala

Contatto : metmap@orbifly.com




FONTI E CREDITI :

   NOAA